Time;durP1;ratioP1;P1;durP2;ratioP2;P2;SDS_P1;SDS_P2;PMS_P1;PMS_P2;Temp;Humidity;BMP_temperature;BMP_pressure;BME280_temperature;BME280_humidity;BME280_pressure;Samples;Min_cycle;Max_cycle;Signal;HPM_P1;HPM_P2
2022/01/07 00:02:17;;;;;;;5.28;2.00;;;17.30;55.40;;;;;;5051505;28;20178;-59
2022/01/07 00:04:42;;;;;;;2.83;1.90;;;17.30;55.50;;;;;;5050701;28;20186;-58
2022/01/07 00:07:09;;;;;;;3.22;2.03;;;17.30;55.40;;;;;;5051602;28;20171;-58
2022/01/07 00:09:36;;;;;;;2.40;1.85;;;17.30;55.50;;;;;;5051220;28;20207;-58
2022/01/07 00:12:03;;;;;;;3.13;2.35;;;17.30;55.40;;;;;;5050701;28;20548;-59
2022/01/07 00:14:28;;;;;;;5.05;2.47;;;17.20;55.30;;;;;;5051132;28;20616;-60
2022/01/07 00:16:54;;;;;;;3.78;2.42;;;17.20;55.20;;;;;;5051255;28;20203;-59
2022/01/07 00:19:20;;;;;;;4.15;2.42;;;17.20;55.20;;;;;;5050482;28;20218;-59
2022/01/07 00:21:45;;;;;;;3.55;1.92;;;17.20;55.20;;;;;;5051504;28;20256;-58
2022/01/07 00:24:11;;;;;;;3.78;2.30;;;17.20;55.30;;;;;;5051063;28;20206;-58
2022/01/07 00:26:36;;;;;;;3.92;2.35;;;17.20;55.20;;;;;;5050977;28;20253;-59
2022/01/07 00:29:02;;;;;;;3.97;2.10;;;17.20;55.10;;;;;;5051223;28;20260;-59
2022/01/07 00:31:27;;;;;;;3.70;2.05;;;17.20;55.20;;;;;;5050123;28;20668;-59
2022/01/07 00:33:53;;;;;;;4.10;2.10;;;17.10;55.20;;;;;;5051311;28;20634;-58
2022/01/07 00:36:18;;;;;;;4.57;2.22;;;17.20;55.20;;;;;;5050950;28;20183;-59
2022/01/07 00:38:44;;;;;;;2.63;2.17;;;17.10;55.10;;;;;;5050583;28;20178;-58
2022/01/07 00:41:09;;;;;;;3.20;1.83;;;17.10;55.00;;;;;;5051504;28;20270;-59
2022/01/07 00:43:35;;;;;;;3.45;2.38;;;17.10;55.00;;;;;;5050855;28;20502;-59
2022/01/07 00:46:00;;;;;;;4.32;2.33;;;17.10;55.00;;;;;;5050487;28;20183;-58
2022/01/07 00:48:26;;;;;;;4.15;2.22;;;17.10;55.00;;;;;;5050963;28;20175;-59
2022/01/07 00:50:51;;;;;;;3.50;2.10;;;17.00;55.00;;;;;;5050713;28;20246;-59
2022/01/07 00:53:17;;;;;;;3.40;2.00;;;17.00;55.00;;;;;;5050473;28;20168;-59
2022/01/07 00:55:42;;;;;;;3.42;2.00;;;17.00;54.80;;;;;;5050781;28;20190;-59
2022/01/07 00:58:08;;;;;;;2.35;2.00;;;17.00;54.70;;;;;;5051151;28;20171;-59
2022/01/07 01:00:34;;;;;;;4.30;2.25;;;17.00;55.40;;;;;;5050217;28;20171;-58
2022/01/07 01:02:59;;;;;;;3.25;2.10;;;17.00;54.70;;;;;;5051135;28;20611;-59
2022/01/07 01:05:25;;;;;;;3.42;2.25;;;17.00;54.60;;;;;;5050786;28;20186;-60
2022/01/07 01:07:51;;;;;;;3.63;2.03;;;16.90;54.50;;;;;;5051642;28;20213;-59
2022/01/07 01:10:17;;;;;;;4.05;2.17;;;16.90;54.60;;;;;;5054559;28;20586;-60
2022/01/07 01:12:44;;;;;;;3.38;2.25;;;16.90;54.50;;;;;;5054222;28;20561;-61
2022/01/07 01:15:11;;;;;;;3.67;2.40;;;16.90;54.50;;;;;;5053786;28;20190;-59
2022/01/07 01:17:36;;;;;;;3.92;2.00;;;16.90;54.60;;;;;;5054282;28;20201;-59
2022/01/07 01:20:04;;;;;;;3.70;2.28;;;16.90;54.50;;;;;;5054596;28;20199;-59
2022/01/07 01:22:29;;;;;;;2.25;2.00;;;16.90;54.50;;;;;;5052084;28;20179;-60
2022/01/07 01:24:55;;;;;;;5.97;2.17;;;16.90;54.50;;;;;;5054287;28;20228;-59
2022/01/07 01:27:20;;;;;;;3.58;1.80;;;16.90;54.40;;;;;;5054385;28;20175;-62
2022/01/07 01:29:46;;;;;;;3.17;1.80;;;16.80;54.40;;;;;;5053561;28;20215;-59
2022/01/07 01:32:11;;;;;;;2.88;2.30;;;16.80;54.50;;;;;;5054098;28;20508;-58
2022/01/07 01:34:37;;;;;;;3.60;2.40;;;16.80;54.50;;;;;;5053509;28;20630;-59
2022/01/07 01:37:02;;;;;;;3.42;2.17;;;16.80;54.40;;;;;;5054111;28;20183;-58
2022/01/07 01:39:28;;;;;;;3.35;2.25;;;16.80;54.40;;;;;;5053904;28;20175;-59
2022/01/07 01:41:53;;;;;;;3.20;2.60;;;16.80;54.60;;;;;;5053600;28;20186;-59
2022/01/07 01:44:19;;;;;;;4.32;2.45;;;16.80;54.50;;;;;;5053769;28;20171;-60
2022/01/07 01:46:44;;;;;;;2.75;1.95;;;16.80;54.50;;;;;;5054355;28;20179;-59
2022/01/07 01:49:10;;;;;;;4.35;2.38;;;16.80;54.50;;;;;;5053506;28;20203;-59
2022/01/07 01:51:35;;;;;;;2.67;1.80;;;16.80;54.50;;;;;;5053516;28;20227;-59
2022/01/07 01:54:01;;;;;;;2.45;1.85;;;16.80;54.50;;;;;;5054123;28;20171;-59
2022/01/07 01:56:27;;;;;;;3.55;2.10;;;16.80;54.50;;;;;;5052964;28;20207;-61
2022/01/07 01:58:52;;;;;;;2.20;1.95;;;16.70;54.40;;;;;;5053864;28;20211;-59
2022/01/07 02:01:18;;;;;;;3.10;2.15;;;16.70;54.40;;;;;;5054089;28;20583;-60
2022/01/07 02:03:43;;;;;;;1.75;1.65;;;16.70;54.50;;;;;;5053054;28;20163;-59
2022/01/07 02:06:09;;;;;;;3.22;2.10;;;16.70;54.50;;;;;;5054000;28;20178;-59
2022/01/07 02:08:36;;;;;;;2.60;2.10;;;16.70;54.40;;;;;;5053361;28;20179;-59
2022/01/07 02:11:02;;;;;;;4.05;1.75;;;16.70;54.40;;;;;;5051569;28;20684;-59
2022/01/07 02:13:28;;;;;;;3.25;2.30;;;16.70;54.50;;;;;;5053287;28;20183;-61
2022/01/07 02:15:53;;;;;;;4.13;2.45;;;16.70;54.40;;;;;;5053445;28;20175;-60
2022/01/07 02:18:19;;;;;;;2.70;2.00;;;16.60;54.40;;;;;;5052579;28;20615;-60
2022/01/07 02:20:44;;;;;;;4.13;1.95;;;16.70;54.50;;;;;;5053014;28;20183;-59
2022/01/07 02:23:10;;;;;;;2.95;1.80;;;16.70;54.50;;;;;;5053525;28;20254;-59
2022/01/07 02:25:35;;;;;;;3.05;2.30;;;16.60;54.50;;;;;;5052438;28;20178;-58
2022/01/07 02:28:01;;;;;;;2.47;1.90;;;16.60;54.50;;;;;;5053174;28;20175;-58
2022/01/07 02:30:29;;;;;;;4.32;2.40;;;16.60;54.50;;;;;;5052904;28;20219;-59
2022/01/07 02:32:57;;;;;;;1.77;1.60;;;16.60;54.50;;;;;;5052609;28;20179;-58
2022/01/07 02:35:24;;;;;;;2.97;2.25;;;16.60;54.40;;;;;;5052889;28;20183;-59
2022/01/07 02:37:50;;;;;;;4.15;2.30;;;16.60;54.50;;;;;;5052593;28;20696;-58
2022/01/07 02:40:16;;;;;;;3.10;2.03;;;16.60;54.50;;;;;;5053271;28;20262;-58
2022/01/07 02:42:41;;;;;;;2.58;2.10;;;16.60;54.50;;;;;;5052780;28;20536;-60
2022/01/07 02:45:08;;;;;;;3.92;2.25;;;16.50;54.40;;;;;;5052663;28;20182;-60
2022/01/07 02:47:50;;;;;;;3.28;2.10;;;16.60;54.50;;;;;;5053491;28;20237;-60
2022/01/07 02:50:18;;;;;;;2.55;2.08;;;16.50;54.40;;;;;;5053040;28;20256;-60
2022/01/07 02:52:44;;;;;;;2.47;1.92;;;16.50;54.40;;;;;;5052022;28;20588;-59
2022/01/07 02:55:10;;;;;;;2.50;2.20;;;16.50;54.40;;;;;;5052958;28;20179;-60
2022/01/07 02:57:35;;;;;;;3.78;2.28;;;16.50;54.30;;;;;;5052489;28;20175;-59
2022/01/07 03:00:02;;;;;;;2.83;2.10;;;16.50;54.40;;;;;;5052200;28;20210;-59
2022/01/07 03:02:27;;;;;;;3.05;1.80;;;16.50;54.30;;;;;;5052591;28;20254;-59
2022/01/07 03:04:55;;;;;;;2.25;2.05;;;16.50;54.30;;;;;;5052820;28;20601;-59
2022/01/07 03:07:21;;;;;;;3.13;2.38;;;16.50;54.40;;;;;;5051642;28;20175;-60
2022/01/07 03:09:46;;;;;;;2.40;1.75;;;16.50;54.30;;;;;;5052640;28;20217;-59
2022/01/07 03:12:12;;;;;;;4.18;2.13;;;16.50;54.30;;;;;;5052505;28;20175;-59
2022/01/07 03:14:37;;;;;;;3.50;2.28;;;16.40;54.20;;;;;;5051723;28;20178;-60
2022/01/07 03:17:03;;;;;;;3.72;2.25;;;16.40;54.30;;;;;;5052640;28;20221;-60
2022/01/07 03:19:28;;;;;;;2.38;1.90;;;16.40;54.30;;;;;;5052241;28;20171;-60
2022/01/07 03:21:57;;;;;;;2.00;1.80;;;16.40;54.30;;;;;;5051804;28;20589;-59
2022/01/07 03:24:22;;;;;;;2.90;2.25;;;16.40;54.30;;;;;;5052081;28;20361;-59
2022/01/07 03:26:48;;;;;;;2.17;1.67;;;16.40;54.20;;;;;;5052461;28;20358;-59
2022/01/07 03:29:13;;;;;;;2.78;1.90;;;16.40;54.30;;;;;;5051570;28;20547;-59
2022/01/07 03:31:39;;;;;;;2.25;1.70;;;16.40;54.30;;;;;;5051090;28;20182;-59
2022/01/07 03:34:04;;;;;;;2.30;2.08;;;16.40;54.20;;;;;;5051963;28;20171;-59
2022/01/07 03:36:30;;;;;;;2.25;1.77;;;16.40;54.20;;;;;;5051543;28;20186;-58
2022/01/07 03:38:57;;;;;;;3.00;1.85;;;16.40;54.30;;;;;;5051955;28;20171;-59
2022/01/07 03:41:22;;;;;;;3.22;1.98;;;16.30;54.30;;;;;;5050944;28;20700;-59
2022/01/07 03:43:48;;;;;;;2.80;1.95;;;16.40;54.30;;;;;;5052092;28;20183;-58
2022/01/07 03:46:13;;;;;;;3.47;1.77;;;16.30;54.20;;;;;;5051944;28;20201;-59
2022/01/07 03:48:39;;;;;;;2.20;1.85;;;16.30;54.20;;;;;;5051073;28;20172;-59
2022/01/07 03:51:04;;;;;;;1.85;1.70;;;16.30;54.20;;;;;;5051578;28;20235;-59
2022/01/07 03:53:30;;;;;;;2.63;1.42;;;16.30;54.20;;;;;;5051577;28;20197;-60
2022/01/07 03:55:55;;;;;;;2.70;1.55;;;16.30;54.20;;;;;;5051480;28;20175;-58
2022/01/07 03:58:21;;;;;;;2.92;2.13;;;16.30;54.20;;;;;;5050466;28;20207;-59
2022/01/07 04:00:46;;;;;;;2.45;1.83;;;16.30;54.30;;;;;;5052079;28;20195;-58
2022/01/07 04:03:14;;;;;;;1.88;1.50;;;16.30;54.20;;;;;;5051243;28;20258;-58
2022/01/07 04:05:40;;;;;;;2.72;1.92;;;16.30;54.20;;;;;;5051431;28;20638;-58
2022/01/07 04:08:06;;;;;;;2.85;1.90;;;16.30;54.20;;;;;;5051786;28;20178;-58
2022/01/07 04:10:31;;;;;;;2.40;1.58;;;16.30;54.20;;;;;;5050632;28;20214;-60
2022/01/07 04:12:57;;;;;;;2.20;1.60;;;16.30;54.30;;;;;;5051857;28;20171;-60
2022/01/07 04:15:23;;;;;;;4.35;1.80;;;16.30;54.30;;;;;;5051449;28;20193;-61
2022/01/07 04:17:50;;;;;;;2.13;1.80;;;16.30;54.30;;;;;;5051012;28;20171;-60
2022/01/07 04:20:18;;;;;;;1.80;1.50;;;16.20;54.10;;;;;;5051647;28;20248;-59
2022/01/07 04:22:43;;;;;;;1.88;1.77;;;16.20;54.20;;;;;;5051240;28;20236;-59
2022/01/07 04:25:17;;;;;;;2.70;2.05;;;16.30;54.20;;;;;;5050986;28;20187;-58
2022/01/07 04:27:43;;;;;;;2.22;1.70;;;16.20;54.20;;;;;;5051283;28;20841;-58
2022/01/07 04:30:09;;;;;;;2.45;1.67;;;16.20;54.20;;;;;;5051574;28;20341;-58
2022/01/07 04:32:35;;;;;;;1.75;1.60;;;16.20;54.20;;;;;;5050572;28;20261;-58
2022/01/07 04:35:01;;;;;;;1.98;1.52;;;16.20;54.20;;;;;;5051376;28;20182;-58
2022/01/07 04:37:26;;;;;;;2.28;2.08;;;16.20;54.20;;;;;;5050723;28;20171;-59
2022/01/07 04:39:52;;;;;;;3.10;1.95;;;16.20;54.20;;;;;;5051347;28;20653;-58
2022/01/07 04:42:17;;;;;;;1.67;1.45;;;16.20;54.20;;;;;;5051816;28;20630;-59
2022/01/07 04:44:43;;;;;;;2.75;1.60;;;16.20;54.20;;;;;;5054562;28;20187;-59
2022/01/07 04:47:09;;;;;;;2.90;2.00;;;16.20;54.20;;;;;;5055357;28;20268;-59
2022/01/07 04:49:34;;;;;;;2.45;1.80;;;16.10;54.20;;;;;;5054887;28;20239;-59
2022/01/07 04:52:00;;;;;;;2.60;1.85;;;16.10;54.10;;;;;;5054207;28;20300;-57
2022/01/07 04:54:25;;;;;;;3.00;1.60;;;16.10;54.10;;;;;;5054846;28;20615;-59
2022/01/07 04:56:51;;;;;;;2.22;1.70;;;16.10;54.10;;;;;;5055341;28;20198;-58
2022/01/07 04:59:19;;;;;;;1.92;1.63;;;16.10;54.10;;;;;;5054479;28;20172;-60
2022/01/07 05:01:44;;;;;;;2.40;1.80;;;16.10;54.10;;;;;;5054964;28;20175;-59
2022/01/07 05:04:10;;;;;;;2.33;1.60;;;16.10;54.20;;;;;;5054981;28;20174;-59
2022/01/07 05:06:44;;;;;;;1.50;1.40;;;16.10;54.20;;;;;;5053710;28;20171;-60
2022/01/07 05:09:16;;;;;;;2.30;1.55;;;16.10;54.20;;;;;;5055052;28;20182;-60
2022/01/07 05:11:45;;;;;;;1.77;1.45;;;16.10;54.20;;;;;;5054690;28;20175;-60
2022/01/07 05:14:10;;;;;;;2.42;1.75;;;16.10;54.20;;;;;;5054106;28;20174;-59
2022/01/07 05:16:36;;;;;;;2.13;1.70;;;16.10;54.20;;;;;;5053135;28;20179;-60
2022/01/07 05:19:02;;;;;;;1.77;1.50;;;16.00;54.10;;;;;;5054463;28;20175;-60
2022/01/07 05:21:27;;;;;;;2.10;1.50;;;16.00;54.10;;;;;;5053648;28;20179;-59
2022/01/07 05:23:53;;;;;;;1.67;1.40;;;16.00;54.10;;;;;;5054867;28;20324;-59
2022/01/07 05:26:18;;;;;;;1.88;1.45;;;16.00;54.10;;;;;;5054542;28;20167;-60
2022/01/07 05:28:44;;;;;;;2.15;1.52;;;16.00;54.10;;;;;;5053824;28;20174;-59
2022/01/07 05:31:09;;;;;;;1.77;1.60;;;16.00;54.20;;;;;;5054279;28;20294;-59
2022/01/07 05:33:35;;;;;;;2.70;1.58;;;16.00;54.20;;;;;;5054245;28;20257;-59
2022/01/07 05:36:00;;;;;;;1.38;1.20;;;16.00;54.90;;;;;;5053908;28;20182;-59
2022/01/07 05:38:26;;;;;;;1.85;1.35;;;16.00;54.20;;;;;;5054039;28;20598;-59
2022/01/07 05:40:51;;;;;;;1.85;1.75;;;15.90;54.20;;;;;;5053855;28;20660;-59
2022/01/07 05:43:17;;;;;;;2.03;1.48;;;16.00;54.20;;;;;;5054264;28;20183;-59
2022/01/07 05:45:45;;;;;;;2.63;1.80;;;15.90;54.10;;;;;;5053945;28;20176;-59
2022/01/07 05:48:11;;;;;;;1.40;1.30;;;15.90;54.80;;;;;;5053600;28;20183;-58
2022/01/07 05:50:37;;;;;;;1.40;1.30;;;15.90;54.20;;;;;;5053972;28;20219;-59
2022/01/07 05:53:02;;;;;;;1.67;1.45;;;15.90;54.20;;;;;;5054051;28;20227;-58
2022/01/07 05:55:28;;;;;;;1.55;1.45;;;15.90;54.20;;;;;;5051954;28;20178;-59
2022/01/07 05:57:53;;;;;;;2.30;1.50;;;15.90;54.20;;;;;;5053872;28;20199;-58
2022/01/07 06:00:19;;;;;;;1.80;1.40;;;15.90;54.20;;;;;;5053871;28;20707;-59
2022/01/07 06:02:44;;;;;;;1.70;1.60;;;15.90;54.30;;;;;;5053193;28;20175;-58
2022/01/07 06:05:10;;;;;;;2.30;1.75;;;15.90;54.20;;;;;;5053753;28;20529;-57
2022/01/07 06:07:35;;;;;;;1.52;1.40;;;15.90;54.20;;;;;;5053572;28;20179;-58
2022/01/07 06:10:01;;;;;;;1.63;1.52;;;15.90;54.20;;;;;;5052941;28;20211;-59
2022/01/07 06:12:26;;;;;;;1.50;1.40;;;15.90;54.20;;;;;;5053324;28;20182;-59
2022/01/07 06:14:52;;;;;;;1.95;1.75;;;15.90;54.20;;;;;;5053742;28;20511;-60
2022/01/07 06:17:18;;;;;;;1.40;1.30;;;15.90;54.40;;;;;;5052699;28;20206;-59
2022/01/07 06:19:43;;;;;;;2.00;1.65;;;15.90;54.30;;;;;;5053743;28;20255;-60
2022/01/07 06:22:09;;;;;;;1.98;1.35;;;15.80;54.30;;;;;;5053569;28;20531;-59
2022/01/07 06:24:34;;;;;;;1.90;1.70;;;15.90;54.40;;;;;;5052294;28;20305;-58
2022/01/07 06:27:00;;;;;;;2.15;1.45;;;15.80;54.30;;;;;;5053466;28;20274;-58
2022/01/07 06:29:25;;;;;;;2.15;1.40;;;15.90;54.40;;;;;;5052994;28;20203;-60
2022/01/07 06:31:51;;;;;;;1.83;1.60;;;15.80;54.30;;;;;;5052533;28;20175;-57
2022/01/07 06:34:20;;;;;;;1.70;1.60;;;15.80;54.30;;;;;;5053035;28;20622;-58
2022/01/07 06:36:46;;;;;;;3.22;1.70;;;15.80;54.30;;;;;;5053279;28;20189;-59
2022/01/07 06:39:12;;;;;;;2.05;1.67;;;15.80;54.30;;;;;;5052618;28;20229;-59
2022/01/07 06:41:37;;;;;;;2.38;1.52;;;15.80;54.40;;;;;;5052740;28;20171;-59
2022/01/07 06:44:03;;;;;;;1.50;1.40;;;15.80;54.50;;;;;;5052277;28;20183;-58
2022/01/07 06:46:29;;;;;;;1.42;1.20;;;15.80;54.50;;;;;;5052615;28;20205;-58
2022/01/07 06:48:54;;;;;;;2.03;1.50;;;15.70;54.50;;;;;;5052908;28;20517;-59
2022/01/07 06:51:20;;;;;;;2.05;1.40;;;15.80;54.50;;;;;;5051792;28;20223;-59
2022/01/07 06:53:45;;;;;;;2.35;1.42;;;15.80;54.50;;;;;;5052955;28;20175;-59
2022/01/07 06:56:11;;;;;;;1.85;1.40;;;15.80;54.60;;;;;;5052633;28;20541;-59
2022/01/07 06:58:36;;;;;;;1.77;1.67;;;15.80;54.50;;;;;;5052010;28;20179;-59
2022/01/07 07:01:03;;;;;;;1.70;1.35;;;15.80;54.60;;;;;;5052760;28;20176;-58
2022/01/07 07:03:28;;;;;;;2.17;1.33;;;15.70;54.70;;;;;;5052950;28;20222;-59
2022/01/07 07:05:54;;;;;;;2.22;1.20;;;15.80;54.60;;;;;;5052058;28;20635;-58
2022/01/07 07:08:19;;;;;;;1.45;1.35;;;15.80;54.50;;;;;;5052366;28;20175;-59
2022/01/07 07:10:45;;;;;;;1.17;1.10;;;15.90;54.50;;;;;;5052550;28;20211;-59
2022/01/07 07:13:10;;;;;;;1.60;1.50;;;15.90;54.60;;;;;;5051920;28;20175;-60
2022/01/07 07:15:36;;;;;;;1.63;1.52;;;16.00;54.60;;;;;;5052126;28;20182;-60
2022/01/07 07:18:01;;;;;;;1.42;1.15;;;16.10;54.70;;;;;;5052510;28;20174;-60
2022/01/07 07:20:27;;;;;;;2.05;1.20;;;16.30;54.60;;;;;;5051367;28;20701;-60
2022/01/07 07:22:52;;;;;;;1.30;1.20;;;16.40;54.40;;;;;;5052555;28;20183;-59
2022/01/07 07:25:20;;;;;;;1.02;1.02;;;16.50;54.20;;;;;;5052550;28;20175;-61
2022/01/07 07:27:45;;;;;;;1.35;1.25;;;16.50;54.00;;;;;;5051494;28;20218;-59
2022/01/07 07:30:14;;;;;;;1.40;1.27;;;16.80;53.80;;;;;;5051896;28;20231;-59
2022/01/07 07:32:39;;;;;;;1.25;1.15;;;16.90;53.70;;;;;;5051986;28;20179;-59
2022/01/07 07:37:57;;;;;;;1.63;1.25;;;17.30;53.30;;;;;;5043713;28;20183;-59
2022/01/07 07:40:22;;;;;;;1.48;1.38;;;17.40;53.00;;;;;;5050962;28;20254;-59
2022/01/07 07:42:48;;;;;;;1.75;1.13;;;17.60;52.60;;;;;;5051936;28;20507;-58
2022/01/07 07:45:13;;;;;;;1.33;1.23;;;17.80;52.50;;;;;;5052019;28;20179;-58
2022/01/07 07:47:40;;;;;;;1.25;1.15;;;17.80;52.30;;;;;;5051032;28;20232;-60
2022/01/07 07:50:06;;;;;;;1.25;1.15;;;17.90;52.30;;;;;;5051945;28;20218;-60
2022/01/07 07:52:32;;;;;;;1.27;1.17;;;18.00;52.20;;;;;;5051368;28;20227;-60
2022/01/07 07:54:57;;;;;;;1.17;1.08;;;18.00;52.10;;;;;;5051307;28;20202;-60
2022/01/07 07:57:22;;;;;;;1.17;1.05;;;18.00;52.20;;;;;;5051599;28;20221;-60
2022/01/07 07:59:50;;;;;;;6.63;1.65;;;18.10;52.10;;;;;;5051563;28;20179;-61
2022/01/07 08:02:16;;;;;;;1.88;1.50;;;18.10;52.20;;;;;;5050674;28;20170;-61
2022/01/07 08:04:41;;;;;;;2.33;1.50;;;18.20;52.70;;;;;;5051308;28;20606;-63
2022/01/07 08:07:07;;;;;;;3.60;1.40;;;18.30;52.40;;;;;;5051529;28;20187;-65
2022/01/07 08:09:37;;;;;;;2.88;1.17;;;18.30;52.50;;;;;;5050426;28;20256;-63
2022/01/07 08:12:16;;;;;;;1.80;1.23;;;18.40;52.70;;;;;;5051460;28;20250;-63
2022/01/07 08:17:26;;;;;;;1.30;1.20;;;18.40;52.60;;;;;;5052616;28;20181;-63
2022/01/07 08:19:51;;;;;;;3.05;1.30;;;18.40;52.60;;;;;;5058052;28;20171;-61
2022/01/07 08:22:17;;;;;;;3.20;1.58;;;18.40;52.80;;;;;;5057900;28;20664;-63
2022/01/07 08:24:43;;;;;;;2.72;1.40;;;18.40;52.90;;;;;;5057038;28;20259;-63
2022/01/07 08:27:08;;;;;;;2.10;1.52;;;18.40;52.90;;;;;;5058047;28;20183;-62
2022/01/07 08:29:36;;;;;;;1.58;1.48;;;18.30;52.90;;;;;;5056878;28;20648;-64
2022/01/07 08:34:57;;;;;;;2.72;1.55;;;18.30;53.00;;;;;;5057864;28;20174;-64
2022/01/07 08:37:28;;;;;;;2.08;1.25;;;18.40;53.00;;;;;;5057185;28;20174;-65
2022/01/07 08:39:55;;;;;;;1.33;1.15;;;18.40;53.10;;;;;;5057884;28;20171;-63
2022/01/07 08:42:22;;;;;;;1.75;1.33;;;18.40;53.10;;;;;;5057740;28;20182;-62
2022/01/07 08:44:52;;;;;;;1.90;1.08;;;18.40;53.10;;;;;;5057123;28;20202;-62
2022/01/07 08:47:19;;;;;;;2.08;1.42;;;18.40;53.20;;;;;;5057528;28;20213;-62
2022/01/07 08:49:45;;;;;;;2.47;1.33;;;18.40;53.20;;;;;;5058054;28;20221;-61
2022/01/07 08:52:11;;;;;;;1.10;1.10;;;18.40;53.30;;;;;;5057181;28;20261;-62
2022/01/07 08:54:36;;;;;;;1.65;1.10;;;18.30;53.30;;;;;;5057635;28;20516;-64
2022/01/07 08:57:02;;;;;;;1.30;1.20;;;18.30;53.40;;;;;;5057882;28;20190;-67
2022/01/07 08:59:27;;;;;;;1.30;1.20;;;18.30;53.40;;;;;;5056657;28;20179;-68
2022/01/07 09:01:55;;;;;;;1.75;1.38;;;18.40;53.40;;;;;;5057736;28;20268;-66
2022/01/07 09:04:21;;;;;;;1.40;1.30;;;18.30;53.60;;;;;;5057549;28;20175;-66
2022/01/07 09:06:46;;;;;;;2.05;1.27;;;18.20;53.70;;;;;;5057094;28;20205;-65
2022/01/07 09:09:12;;;;;;;1.95;1.30;;;18.20;53.70;;;;;;5057783;28;20175;-66
2022/01/07 09:11:37;;;;;;;1.65;1.20;;;18.30;53.70;;;;;;5057215;28;20179;-66
2022/01/07 09:14:03;;;;;;;1.77;1.60;;;18.20;53.80;;;;;;5056870;28;20175;-66
2022/01/07 09:16:28;;;;;;;2.42;1.45;;;18.20;53.90;;;;;;5055880;28;20174;-65
2022/01/07 09:18:54;;;;;;;2.78;1.30;;;18.20;53.90;;;;;;5056910;28;20167;-66
2022/01/07 09:21:19;;;;;;;1.65;1.45;;;18.20;53.90;;;;;;5057518;28;20171;-66
2022/01/07 09:23:45;;;;;;;1.98;1.35;;;18.10;54.00;;;;;;5057555;28;20179;-65
2022/01/07 09:26:11;;;;;;;2.75;1.73;;;18.10;54.00;;;;;;5056890;28;20175;-66
2022/01/07 09:28:36;;;;;;;3.30;1.85;;;18.10;54.00;;;;;;5056463;28;20168;-66
2022/01/07 09:31:02;;;;;;;1.55;1.33;;;18.10;54.00;;;;;;5054185;28;20207;-66
2022/01/07 09:33:27;;;;;;;2.67;1.48;;;18.10;54.00;;;;;;5053498;28;20175;-68
2022/01/07 09:35:53;;;;;;;1.35;1.30;;;18.10;54.10;;;;;;5054243;28;20175;-66
2022/01/07 09:38:18;;;;;;;2.10;1.52;;;18.10;54.00;;;;;;5054121;28;20611;-65
2022/01/07 09:40:44;;;;;;;3.63;1.60;;;18.10;54.10;;;;;;5053355;28;20179;-65
2022/01/07 09:43:12;;;;;;;2.03;1.52;;;18.10;54.00;;;;;;5054108;28;20178;-64
2022/01/07 09:45:38;;;;;;;4.28;1.58;;;18.10;54.00;;;;;;5052479;28;20175;-65
2022/01/07 09:48:04;;;;;;;2.53;1.60;;;18.20;53.90;;;;;;5053588;28;20171;-63
2022/01/07 09:50:30;;;;;;;1.77;1.15;;;18.20;54.00;;;;;;5053909;28;20211;-63
2022/01/07 09:52:56;;;;;;;2.67;1.45;;;18.30;53.90;;;;;;5053784;28;20302;-63
2022/01/07 09:55:21;;;;;;;3.22;1.55;;;18.30;53.80;;;;;;5052703;28;20652;-63
2022/01/07 09:57:47;;;;;;;4.18;1.65;;;18.40;53.70;;;;;;5053653;28;20179;-64
2022/01/07 10:00:13;;;;;;;3.70;1.20;;;18.30;53.80;;;;;;5053813;28;20214;-64
2022/01/07 10:02:56;;;;;;;1.23;1.10;;;18.40;53.70;;;;;;5052935;28;20176;-64
2022/01/07 10:05:22;;;;;;;2.47;1.60;;;18.40;53.80;;;;;;5053669;28;20185;-64
2022/01/07 10:07:48;;;;;;;2.70;1.50;;;18.40;53.80;;;;;;5053794;28;20650;-62
2022/01/07 10:10:14;;;;;;;2.58;1.55;;;18.30;54.00;;;;;;5052815;28;20261;-65
2022/01/07 10:13:00;;;;;;;2.83;1.45;;;18.30;54.10;;;;;;5053156;28;20298;-64
2022/01/07 10:15:27;;;;;;;3.88;1.65;;;18.30;54.10;;;;;;5052508;28;20175;-65
2022/01/07 10:18:01;;;;;;;2.60;1.50;;;18.30;54.10;;;;;;5053471;28;20361;-65
2022/01/07 10:20:29;;;;;;;4.25;1.35;;;18.30;54.10;;;;;;5053176;28;20187;-64
2022/01/07 10:22:59;;;;;;;2.15;1.30;;;18.30;54.20;;;;;;5052472;28;20531;-65
2022/01/07 10:25:32;;;;;;;1.60;1.30;;;18.30;54.10;;;;;;5052987;28;20253;-64
2022/01/07 10:28:00;;;;;;;2.17;1.50;;;18.40;54.10;;;;;;5053358;28;20261;-65
2022/01/07 10:30:26;;;;;;;2.00;1.45;;;18.40;54.10;;;;;;5052324;28;20211;-66
2022/01/07 10:32:53;;;;;;;2.40;1.52;;;18.40;54.10;;;;;;5053258;28;20236;-66
2022/01/07 10:35:19;;;;;;;2.50;1.20;;;18.40;54.00;;;;;;5052970;28;20258;-66
2022/01/07 10:37:55;;;;;;;3.80;1.65;;;18.40;54.10;;;;;;5052349;28;20649;-66
2022/01/07 10:40:33;;;;;;;2.95;1.40;;;18.40;54.10;;;;;;5052421;28;20175;-65
2022/01/07 10:43:14;;;;;;;1.50;1.40;;;18.30;54.30;;;;;;5053003;28;20270;-65
2022/01/07 10:45:45;;;;;;;2.55;1.50;;;18.20;54.20;;;;;;5052669;28;20274;-65
2022/01/07 10:48:11;;;;;;;2.53;1.45;;;18.20;54.40;;;;;;5053036;28;20248;-65
2022/01/07 10:50:39;;;;;;;2.30;1.40;;;18.20;54.40;;;;;;5051713;28;20226;-64
2022/01/07 10:53:22;;;;;;;2.45;1.35;;;18.20;54.50;;;;;;5052615;28;20280;-65
2022/01/07 10:56:08;;;;;;;2.38;1.40;;;18.20;54.50;;;;;;5052842;28;20178;-65
2022/01/07 10:58:42;;;;;;;1.58;1.17;;;18.10;54.60;;;;;;5051475;28;20262;-65
2022/01/07 11:01:08;;;;;;;1.98;1.50;;;18.20;54.50;;;;;;5052683;28;20211;-69
2022/01/07 11:03:34;;;;;;;2.53;1.58;;;18.10;55.10;;;;;;5052432;28;20269;-63
2022/01/07 11:06:01;;;;;;;3.63;1.50;;;18.10;54.60;;;;;;5050656;28;20184;-65
2022/01/07 11:08:26;;;;;;;2.17;1.30;;;18.10;54.80;;;;;;5051109;28;20179;-64
2022/01/07 11:10:55;;;;;;;4.40;1.63;;;18.00;54.80;;;;;;5052245;28;20211;-64
2022/01/07 11:13:21;;;;;;;2.75;1.40;;;18.00;54.80;;;;;;5051629;28;20205;-65
2022/01/07 11:15:46;;;;;;;3.92;1.45;;;18.00;54.90;;;;;;5051241;28;20171;-64
2022/01/07 11:18:12;;;;;;;3.45;1.50;;;17.90;55.00;;;;;;5052159;28;20182;-65
2022/01/07 11:20:37;;;;;;;4.53;1.70;;;17.90;55.00;;;;;;5051217;28;20632;-65
2022/01/07 11:23:03;;;;;;;2.28;1.30;;;17.90;55.00;;;;;;5050784;28;20187;-64
2022/01/07 11:25:32;;;;;;;3.13;1.25;;;18.00;55.00;;;;;;5050074;28;20171;-64
2022/01/07 11:27:59;;;;;;;3.13;1.20;;;18.00;54.90;;;;;;5051956;28;20194;-64
2022/01/07 11:30:32;;;;;;;3.38;1.40;;;17.90;55.00;;;;;;5051770;28;20261;-64
2022/01/07 11:32:57;;;;;;;2.30;1.40;;;17.90;55.00;;;;;;5051517;28;20184;-65
2022/01/07 11:35:23;;;;;;;3.22;1.40;;;17.90;55.10;;;;;;5051797;28;20179;-66
2022/01/07 11:37:57;;;;;;;1.75;1.25;;;17.90;55.10;;;;;;5052045;28;20254;-66
2022/01/07 11:40:28;;;;;;;1.95;1.27;;;17.90;55.20;;;;;;5051036;28;20186;-65
2022/01/07 11:42:54;;;;;;;1.55;1.35;;;17.90;55.10;;;;;;5052018;28;20225;-65
2022/01/07 11:45:38;;;;;;;2.80;1.17;;;17.90;55.20;;;;;;5051424;28;20482;-66
2022/01/07 11:48:13;;;;;;;1.52;1.30;;;17.90;55.20;;;;;;5051483;28;20183;-65
2022/01/07 11:50:59;;;;;;;1.52;1.10;;;17.90;55.10;;;;;;5051558;28;20549;-65
2022/01/07 11:53:50;;;;;;;2.97;1.58;;;17.90;55.20;;;;;;5050507;28;20689;-64
2022/01/07 11:56:17;;;;;;;1.77;1.45;;;17.90;55.00;;;;;;5048851;28;20187;-65
2022/01/07 11:58:44;;;;;;;1.80;1.23;;;17.90;55.20;;;;;;5051437;28;20710;-65
2022/01/07 12:01:23;;;;;;;2.58;1.30;;;17.90;55.10;;;;;;5051128;28;20179;-66
2022/01/07 12:03:49;;;;;;;2.53;1.60;;;17.80;55.00;;;;;;5051858;28;20312;-64
2022/01/07 12:06:24;;;;;;;4.63;1.73;;;17.80;55.20;;;;;;5051658;28;20630;-63
2022/01/07 12:08:58;;;;;;;2.83;1.42;;;17.80;55.20;;;;;;5050908;28;20177;-62
2022/01/07 12:11:25;;;;;;;2.10;1.50;;;17.80;55.30;;;;;;5051127;28;20214;-63
2022/01/07 12:13:50;;;;;;;2.67;1.42;;;17.80;55.30;;;;;;5051356;28;20536;-63
2022/01/07 12:16:23;;;;;;;1.75;1.30;;;17.80;55.30;;;;;;5051072;28;20587;-62
2022/01/07 12:18:48;;;;;;;4.47;1.50;;;17.80;55.30;;;;;;5051624;28;20270;-62
2022/01/07 12:21:14;;;;;;;3.78;1.50;;;17.70;55.20;;;;;;5051446;28;20199;-63
2022/01/07 12:23:45;;;;;;;3.13;1.30;;;17.80;55.20;;;;;;5050583;28;20262;-62
2022/01/07 12:26:13;;;;;;;3.47;1.70;;;17.80;55.10;;;;;;5050039;28;20560;-63
2022/01/07 12:28:48;;;;;;;3.15;1.58;;;17.80;55.10;;;;;;5050306;28;20171;-64
2022/01/07 12:31:13;;;;;;;2.53;1.45;;;17.70;55.30;;;;;;5051263;28;20301;-65
2022/01/07 12:33:52;;;;;;;4.35;1.50;;;17.70;55.30;;;;;;5051020;28;20174;-66
2022/01/07 12:36:28;;;;;;;1.50;1.40;;;17.80;55.40;;;;;;5050601;28;20179;-66
2022/01/07 12:39:04;;;;;;;2.17;1.40;;;17.80;55.30;;;;;;5051305;28;20175;-66
2022/01/07 12:41:29;;;;;;;2.13;1.38;;;18.00;55.30;;;;;;5050885;28;20186;-65
2022/01/07 12:44:11;;;;;;;4.00;1.73;;;18.10;55.30;;;;;;5050433;28;20322;-66
2022/01/07 12:46:37;;;;;;;2.40;1.50;;;18.20;55.70;;;;;;5050688;28;20195;-66
2022/01/07 12:49:03;;;;;;;3.03;1.45;;;18.30;55.00;;;;;;5051008;28;20179;-65
2022/01/07 12:51:31;;;;;;;2.63;1.20;;;18.30;54.70;;;;;;5049687;28;20705;-64
2022/01/07 12:54:01;;;;;;;2.05;1.40;;;18.50;54.70;;;;;;5051187;28;20175;-64
2022/01/07 12:56:33;;;;;;;2.30;1.25;;;18.50;54.60;;;;;;5050785;28;20226;-64